sensor_id;sensor_type;location;lat;lon;timestamp;P1;durP1;ratioP1;P2;durP2;ratioP2
75195;SDS011;63773;42.282;22.782;2023-04-03T00:01:03;4.30;;;2.03;;
75195;SDS011;63773;42.282;22.782;2023-04-03T00:03:28;6.30;;;2.38;;
75195;SDS011;63773;42.282;22.782;2023-04-03T00:05:54;5.10;;;1.90;;
75195;SDS011;63773;42.282;22.782;2023-04-03T00:08:20;4.65;;;2.03;;
75195;SDS011;63773;42.282;22.782;2023-04-03T00:10:45;5.28;;;2.28;;
75195;SDS011;63773;42.282;22.782;2023-04-03T00:13:11;4.63;;;1.80;;
75195;SDS011;63773;42.282;22.782;2023-04-03T00:15:37;5.00;;;1.90;;
75195;SDS011;63773;42.282;22.782;2023-04-03T00:18:03;4.25;;;1.90;;
75195;SDS011;63773;42.282;22.782;2023-04-03T00:20:29;4.45;;;2.00;;
75195;SDS011;63773;42.282;22.782;2023-04-03T00:22:55;4.78;;;1.92;;
75195;SDS011;63773;42.282;22.782;2023-04-03T00:25:20;4.85;;;2.10;;
75195;SDS011;63773;42.282;22.782;2023-04-03T00:27:46;6.15;;;2.15;;
75195;SDS011;63773;42.282;22.782;2023-04-03T00:30:13;5.55;;;2.20;;
75195;SDS011;63773;42.282;22.782;2023-04-03T00:32:41;4.93;;;1.90;;
75195;SDS011;63773;42.282;22.782;2023-04-03T00:35:06;3.83;;;2.22;;
75195;SDS011;63773;42.282;22.782;2023-04-03T00:37:33;4.38;;;2.22;;
75195;SDS011;63773;42.282;22.782;2023-04-03T00:39:58;5.57;;;1.92;;
75195;SDS011;63773;42.282;22.782;2023-04-03T00:42:24;5.05;;;2.55;;
75195;SDS011;63773;42.282;22.782;2023-04-03T00:47:18;4.95;;;2.17;;
75195;SDS011;63773;42.282;22.782;2023-04-03T00:49:43;5.28;;;2.15;;
75195;SDS011;63773;42.282;22.782;2023-04-03T00:52:12;4.50;;;2.25;;
75195;SDS011;63773;42.282;22.782;2023-04-03T00:54:41;5.32;;;2.35;;
75195;SDS011;63773;42.282;22.782;2023-04-03T00:57:08;4.07;;;2.22;;
75195;SDS011;63773;42.282;22.782;2023-04-03T00:59:38;4.35;;;2.30;;
75195;SDS011;63773;42.282;22.782;2023-04-03T01:02:06;5.38;;;2.38;;
75195;SDS011;63773;42.282;22.782;2023-04-03T01:04:36;3.60;;;1.65;;
75195;SDS011;63773;42.282;22.782;2023-04-03T01:07:04;5.75;;;2.17;;
75195;SDS011;63773;42.282;22.782;2023-04-03T01:09:33;4.68;;;1.92;;
75195;SDS011;63773;42.282;22.782;2023-04-03T01:12:16;4.80;;;2.22;;
75195;SDS011;63773;42.282;22.782;2023-04-03T01:14:43;3.70;;;1.60;;
75195;SDS011;63773;42.282;22.782;2023-04-03T01:25:18;4.10;;;1.83;;
75195;SDS011;63773;42.282;22.782;2023-04-03T01:27:43;5.13;;;2.03;;
75195;SDS011;63773;42.282;22.782;2023-04-03T01:30:09;5.18;;;1.90;;
75195;SDS011;63773;42.282;22.782;2023-04-03T01:32:35;4.57;;;2.22;;
75195;SDS011;63773;42.282;22.782;2023-04-03T01:35:01;6.18;;;2.90;;
75195;SDS011;63773;42.282;22.782;2023-04-03T01:37:26;4.78;;;1.90;;
75195;SDS011;63773;42.282;22.782;2023-04-03T01:39:52;4.22;;;1.88;;
75195;SDS011;63773;42.282;22.782;2023-04-03T01:42:17;4.55;;;2.38;;
75195;SDS011;63773;42.282;22.782;2023-04-03T01:44:42;6.30;;;2.55;;
75195;SDS011;63773;42.282;22.782;2023-04-03T01:47:08;3.35;;;1.63;;
75195;SDS011;63773;42.282;22.782;2023-04-03T01:49:33;3.58;;;1.77;;
75195;SDS011;63773;42.282;22.782;2023-04-03T01:51:59;6.30;;;2.50;;
75195;SDS011;63773;42.282;22.782;2023-04-03T01:54:24;4.32;;;1.92;;
75195;SDS011;63773;42.282;22.782;2023-04-03T01:56:50;4.63;;;2.00;;
75195;SDS011;63773;42.282;22.782;2023-04-03T01:59:15;3.67;;;2.20;;
75195;SDS011;63773;42.282;22.782;2023-04-03T02:01:42;4.95;;;2.60;;
75195;SDS011;63773;42.282;22.782;2023-04-03T02:04:10;5.40;;;3.08;;
75195;SDS011;63773;42.282;22.782;2023-04-03T02:06:36;4.55;;;2.20;;
75195;SDS011;63773;42.282;22.782;2023-04-03T02:09:01;4.78;;;2.92;;
75195;SDS011;63773;42.282;22.782;2023-04-03T02:11:27;4.70;;;2.00;;
75195;SDS011;63773;42.282;22.782;2023-04-03T02:13:52;4.68;;;2.17;;
75195;SDS011;63773;42.282;22.782;2023-04-03T02:16:18;3.65;;;2.05;;
75195;SDS011;63773;42.282;22.782;2023-04-03T02:18:43;6.25;;;2.20;;
75195;SDS011;63773;42.282;22.782;2023-04-03T02:21:09;3.60;;;1.75;;
75195;SDS011;63773;42.282;22.782;2023-04-03T02:23:34;5.18;;;1.83;;
75195;SDS011;63773;42.282;22.782;2023-04-03T02:26:02;4.15;;;1.83;;
75195;SDS011;63773;42.282;22.782;2023-04-03T02:28:36;3.10;;;1.67;;
75195;SDS011;63773;42.282;22.782;2023-04-03T02:31:03;4.75;;;2.05;;
75195;SDS011;63773;42.282;22.782;2023-04-03T02:33:29;4.45;;;1.83;;
75195;SDS011;63773;42.282;22.782;2023-04-03T02:35:55;3.72;;;1.85;;
75195;SDS011;63773;42.282;22.782;2023-04-03T02:38:22;3.53;;;1.52;;
75195;SDS011;63773;42.282;22.782;2023-04-03T02:40:48;4.68;;;2.05;;
75195;SDS011;63773;42.282;22.782;2023-04-03T02:43:13;4.45;;;1.70;;
75195;SDS011;63773;42.282;22.782;2023-04-03T02:45:39;7.97;;;1.90;;
75195;SDS011;63773;42.282;22.782;2023-04-03T02:48:04;3.88;;;1.70;;
75195;SDS011;63773;42.282;22.782;2023-04-03T02:50:30;3.33;;;1.60;;
75195;SDS011;63773;42.282;22.782;2023-04-03T02:52:55;4.45;;;1.60;;
75195;SDS011;63773;42.282;22.782;2023-04-03T02:55:21;3.15;;;1.50;;
75195;SDS011;63773;42.282;22.782;2023-04-03T02:57:46;3.33;;;1.45;;
75195;SDS011;63773;42.282;22.782;2023-04-03T03:00:12;4.70;;;1.83;;
75195;SDS011;63773;42.282;22.782;2023-04-03T03:02:39;3.92;;;2.00;;
75195;SDS011;63773;42.282;22.782;2023-04-03T03:05:05;3.63;;;2.10;;
75195;SDS011;63773;42.282;22.782;2023-04-03T03:07:30;4.13;;;1.75;;
75195;SDS011;63773;42.282;22.782;2023-04-03T03:09:56;4.72;;;1.80;;
75195;SDS011;63773;42.282;22.782;2023-04-03T03:12:21;4.00;;;1.80;;
75195;SDS011;63773;42.282;22.782;2023-04-03T03:14:48;4.00;;;1.98;;
75195;SDS011;63773;42.282;22.782;2023-04-03T03:17:14;3.90;;;1.60;;
75195;SDS011;63773;42.282;22.782;2023-04-03T03:19:41;4.70;;;1.90;;
75195;SDS011;63773;42.282;22.782;2023-04-03T03:22:06;3.17;;;1.77;;
75195;SDS011;63773;42.282;22.782;2023-04-03T03:24:31;5.30;;;2.10;;
75195;SDS011;63773;42.282;22.782;2023-04-03T03:26:57;4.18;;;2.13;;
75195;SDS011;63773;42.282;22.782;2023-04-03T03:29:22;5.60;;;2.42;;
75195;SDS011;63773;42.282;22.782;2023-04-03T03:31:48;4.10;;;1.63;;
75195;SDS011;63773;42.282;22.782;2023-04-03T03:34:13;10.88;;;4.05;;
75195;SDS011;63773;42.282;22.782;2023-04-03T03:36:38;3.95;;;1.83;;
75195;SDS011;63773;42.282;22.782;2023-04-03T03:39:04;4.10;;;1.95;;
75195;SDS011;63773;42.282;22.782;2023-04-03T03:41:30;4.35;;;1.92;;
75195;SDS011;63773;42.282;22.782;2023-04-03T03:43:56;5.30;;;2.53;;
75195;SDS011;63773;42.282;22.782;2023-04-03T03:46:21;5.10;;;2.20;;
75195;SDS011;63773;42.282;22.782;2023-04-03T03:48:47;5.63;;;2.55;;
75195;SDS011;63773;42.282;22.782;2023-04-03T03:51:12;3.20;;;1.50;;
75195;SDS011;63773;42.282;22.782;2023-04-03T03:53:37;3.17;;;1.75;;
75195;SDS011;63773;42.282;22.782;2023-04-03T03:56:03;4.00;;;2.25;;
75195;SDS011;63773;42.282;22.782;2023-04-03T03:58:29;3.70;;;2.00;;
75195;SDS011;63773;42.282;22.782;2023-04-03T04:00:55;4.85;;;1.60;;
75195;SDS011;63773;42.282;22.782;2023-04-03T04:03:20;3.38;;;1.83;;
75195;SDS011;63773;42.282;22.782;2023-04-03T04:05:46;3.42;;;1.90;;
75195;SDS011;63773;42.282;22.782;2023-04-03T04:08:11;4.25;;;1.75;;
75195;SDS011;63773;42.282;22.782;2023-04-03T04:10:37;4.05;;;1.63;;
75195;SDS011;63773;42.282;22.782;2023-04-03T04:13:02;5.07;;;2.30;;
75195;SDS011;63773;42.282;22.782;2023-04-03T04:15:28;9.95;;;5.65;;
75195;SDS011;63773;42.282;22.782;2023-04-03T04:17:54;5.07;;;2.67;;
75195;SDS011;63773;42.282;22.782;2023-04-03T04:20:19;7.72;;;4.53;;
75195;SDS011;63773;42.282;22.782;2023-04-03T04:22:45;7.85;;;4.00;;
75195;SDS011;63773;42.282;22.782;2023-04-03T04:25:11;6.55;;;2.55;;
75195;SDS011;63773;42.282;22.782;2023-04-03T04:27:36;4.00;;;2.40;;
75195;SDS011;63773;42.282;22.782;2023-04-03T04:30:02;2.92;;;1.70;;
75195;SDS011;63773;42.282;22.782;2023-04-03T04:32:29;2.88;;;1.58;;
75195;SDS011;63773;42.282;22.782;2023-04-03T04:34:55;4.32;;;1.70;;
75195;SDS011;63773;42.282;22.782;2023-04-03T04:37:20;4.78;;;2.00;;
75195;SDS011;63773;42.282;22.782;2023-04-03T04:39:45;5.13;;;2.22;;
75195;SDS011;63773;42.282;22.782;2023-04-03T04:42:11;4.95;;;2.25;;
75195;SDS011;63773;42.282;22.782;2023-04-03T04:44:38;4.18;;;2.22;;
75195;SDS011;63773;42.282;22.782;2023-04-03T04:47:04;3.53;;;1.90;;
75195;SDS011;63773;42.282;22.782;2023-04-03T04:49:29;3.53;;;1.65;;
75195;SDS011;63773;42.282;22.782;2023-04-03T04:51:55;3.95;;;1.70;;
75195;SDS011;63773;42.282;22.782;2023-04-03T04:54:20;3.28;;;1.83;;
75195;SDS011;63773;42.282;22.782;2023-04-03T04:56:46;4.20;;;1.65;;
75195;SDS011;63773;42.282;22.782;2023-04-03T04:59:11;3.25;;;1.85;;
75195;SDS011;63773;42.282;22.782;2023-04-03T05:01:36;5.22;;;2.13;;
75195;SDS011;63773;42.282;22.782;2023-04-03T05:04:02;4.25;;;2.42;;
75195;SDS011;63773;42.282;22.782;2023-04-03T05:06:28;10.27;;;4.97;;
75195;SDS011;63773;42.282;22.782;2023-04-03T05:08:55;11.13;;;4.93;;
75195;SDS011;63773;42.282;22.782;2023-04-03T05:11:20;12.75;;;6.38;;
75195;SDS011;63773;42.282;22.782;2023-04-03T05:13:46;10.50;;;6.13;;
75195;SDS011;63773;42.282;22.782;2023-04-03T05:16:11;10.63;;;5.43;;
75195;SDS011;63773;42.282;22.782;2023-04-03T05:18:37;5.85;;;3.42;;
75195;SDS011;63773;42.282;22.782;2023-04-03T05:21:02;6.70;;;2.85;;
75195;SDS011;63773;42.282;22.782;2023-04-03T05:23:28;7.13;;;3.67;;
75195;SDS011;63773;42.282;22.782;2023-04-03T05:25:53;4.90;;;3.25;;
75195;SDS011;63773;42.282;22.782;2023-04-03T05:28:19;7.53;;;3.30;;
75195;SDS011;63773;42.282;22.782;2023-04-03T05:30:44;5.05;;;2.60;;
75195;SDS011;63773;42.282;22.782;2023-04-03T05:33:10;5.43;;;3.17;;
75195;SDS011;63773;42.282;22.782;2023-04-03T05:35:37;3.92;;;2.08;;
75195;SDS011;63773;42.282;22.782;2023-04-03T05:38:06;5.55;;;2.78;;
75195;SDS011;63773;42.282;22.782;2023-04-03T05:40:32;4.35;;;2.10;;
75195;SDS011;63773;42.282;22.782;2023-04-03T05:42:58;6.50;;;1.98;;
75195;SDS011;63773;42.282;22.782;2023-04-03T05:45:23;4.85;;;2.42;;
75195;SDS011;63773;42.282;22.782;2023-04-03T05:47:48;4.03;;;1.85;;
75195;SDS011;63773;42.282;22.782;2023-04-03T05:50:14;4.57;;;1.83;;
75195;SDS011;63773;42.282;22.782;2023-04-03T05:52:40;4.05;;;2.05;;
75195;SDS011;63773;42.282;22.782;2023-04-03T05:55:09;4.97;;;2.20;;
75195;SDS011;63773;42.282;22.782;2023-04-03T05:57:35;3.40;;;1.92;;
75195;SDS011;63773;42.282;22.782;2023-04-03T06:00:00;5.35;;;2.22;;
75195;SDS011;63773;42.282;22.782;2023-04-03T06:02:25;4.57;;;2.60;;
75195;SDS011;63773;42.282;22.782;2023-04-03T06:04:52;4.30;;;2.67;;
75195;SDS011;63773;42.282;22.782;2023-04-03T06:07:18;4.03;;;1.70;;
75195;SDS011;63773;42.282;22.782;2023-04-03T06:09:47;4.82;;;2.40;;
75195;SDS011;63773;42.282;22.782;2023-04-03T06:12:13;4.47;;;2.25;;
75195;SDS011;63773;42.282;22.782;2023-04-03T06:14:39;4.82;;;2.38;;
75195;SDS011;63773;42.282;22.782;2023-04-03T06:17:05;3.13;;;1.60;;
75195;SDS011;63773;42.282;22.782;2023-04-03T06:19:32;3.90;;;1.80;;
75195;SDS011;63773;42.282;22.782;2023-04-03T06:21:57;4.03;;;1.90;;
75195;SDS011;63773;42.282;22.782;2023-04-03T06:24:22;4.00;;;1.80;;
75195;SDS011;63773;42.282;22.782;2023-04-03T06:26:50;5.82;;;1.98;;
75195;SDS011;63773;42.282;22.782;2023-04-03T06:29:16;4.57;;;1.60;;
75195;SDS011;63773;42.282;22.782;2023-04-03T06:31:42;4.05;;;1.50;;
75195;SDS011;63773;42.282;22.782;2023-04-03T06:34:08;4.03;;;2.20;;
75195;SDS011;63773;42.282;22.782;2023-04-03T06:36:34;3.83;;;1.98;;
75195;SDS011;63773;42.282;22.782;2023-04-03T06:39:00;6.05;;;3.13;;
75195;SDS011;63773;42.282;22.782;2023-04-03T06:41:26;6.22;;;2.97;;
75195;SDS011;63773;42.282;22.782;2023-04-03T06:43:52;13.82;;;6.13;;
75195;SDS011;63773;42.282;22.782;2023-04-03T06:46:19;6.72;;;4.03;;
75195;SDS011;63773;42.282;22.782;2023-04-03T06:48:46;5.68;;;3.00;;
75195;SDS011;63773;42.282;22.782;2023-04-03T06:51:19;6.55;;;3.88;;
75195;SDS011;63773;42.282;22.782;2023-04-03T06:53:45;6.78;;;3.55;;
75195;SDS011;63773;42.282;22.782;2023-04-03T06:56:11;11.98;;;4.57;;
75195;SDS011;63773;42.282;22.782;2023-04-03T06:58:37;7.13;;;3.63;;
75195;SDS011;63773;42.282;22.782;2023-04-03T07:01:02;5.45;;;2.95;;
75195;SDS011;63773;42.282;22.782;2023-04-03T07:03:28;6.20;;;3.05;;
75195;SDS011;63773;42.282;22.782;2023-04-03T07:05:53;5.50;;;3.30;;
75195;SDS011;63773;42.282;22.782;2023-04-03T07:08:19;6.93;;;2.65;;
75195;SDS011;63773;42.282;22.782;2023-04-03T07:10:44;4.72;;;2.40;;
75195;SDS011;63773;42.282;22.782;2023-04-03T07:13:10;4.38;;;2.10;;
75195;SDS011;63773;42.282;22.782;2023-04-03T07:15:35;4.57;;;2.35;;
75195;SDS011;63773;42.282;22.782;2023-04-03T07:18:01;4.18;;;1.75;;
75195;SDS011;63773;42.282;22.782;2023-04-03T07:20:27;6.85;;;2.08;;
75195;SDS011;63773;42.282;22.782;2023-04-03T07:22:53;5.32;;;2.00;;
75195;SDS011;63773;42.282;22.782;2023-04-03T07:25:18;4.85;;;2.17;;
75195;SDS011;63773;42.282;22.782;2023-04-03T07:27:44;3.80;;;1.98;;
75195;SDS011;63773;42.282;22.782;2023-04-03T07:30:09;5.45;;;1.90;;
75195;SDS011;63773;42.282;22.782;2023-04-03T07:32:35;4.60;;;2.33;;
75195;SDS011;63773;42.282;22.782;2023-04-03T07:35:01;5.40;;;2.15;;
75195;SDS011;63773;42.282;22.782;2023-04-03T07:37:27;5.32;;;2.80;;
75195;SDS011;63773;42.282;22.782;2023-04-03T07:39:52;5.72;;;2.25;;
75195;SDS011;63773;42.282;22.782;2023-04-03T07:42:18;3.80;;;2.28;;
75195;SDS011;63773;42.282;22.782;2023-04-03T07:44:43;3.75;;;2.08;;
75195;SDS011;63773;42.282;22.782;2023-04-03T07:47:09;5.50;;;2.22;;
75195;SDS011;63773;42.282;22.782;2023-04-03T07:49:35;4.75;;;1.85;;
75195;SDS011;63773;42.282;22.782;2023-04-03T07:52:03;4.05;;;2.10;;
75195;SDS011;63773;42.282;22.782;2023-04-03T07:54:29;5.13;;;2.00;;
75195;SDS011;63773;42.282;22.782;2023-04-03T07:56:55;3.33;;;1.98;;
75195;SDS011;63773;42.282;22.782;2023-04-03T07:59:21;4.32;;;2.33;;
75195;SDS011;63773;42.282;22.782;2023-04-03T08:01:47;3.75;;;2.03;;
75195;SDS011;63773;42.282;22.782;2023-04-03T08:04:12;5.93;;;1.95;;
75195;SDS011;63773;42.282;22.782;2023-04-03T08:06:37;4.93;;;2.10;;
75195;SDS011;63773;42.282;22.782;2023-04-03T08:09:03;11.43;;;5.07;;
75195;SDS011;63773;42.282;22.782;2023-04-03T08:11:29;7.10;;;3.53;;
75195;SDS011;63773;42.282;22.782;2023-04-03T08:13:55;7.20;;;3.80;;
75195;SDS011;63773;42.282;22.782;2023-04-03T08:16:21;8.80;;;4.47;;
75195;SDS011;63773;42.282;22.782;2023-04-03T08:18:48;10.65;;;5.57;;
75195;SDS011;63773;42.282;22.782;2023-04-03T08:21:14;9.20;;;5.65;;
75195;SDS011;63773;42.282;22.782;2023-04-03T08:23:40;13.98;;;6.20;;
75195;SDS011;63773;42.282;22.782;2023-04-03T08:26:09;11.23;;;6.82;;
75195;SDS011;63773;42.282;22.782;2023-04-03T08:28:38;10.45;;;5.53;;
75195;SDS011;63773;42.282;22.782;2023-04-03T08:31:07;11.95;;;5.78;;
75195;SDS011;63773;42.282;22.782;2023-04-03T08:33:36;10.77;;;5.70;;
75195;SDS011;63773;42.282;22.782;2023-04-03T08:36:06;12.85;;;6.80;;
75195;SDS011;63773;42.282;22.782;2023-04-03T08:38:40;11.63;;;6.30;;
75195;SDS011;63773;42.282;22.782;2023-04-03T08:52:01;8.25;;;4.95;;
75195;SDS011;63773;42.282;22.782;2023-04-03T08:54:32;3.30;;;1.40;;
75195;SDS011;63773;42.282;22.782;2023-04-03T08:57:01;2.58;;;1.10;;
75195;SDS011;63773;42.282;22.782;2023-04-03T08:59:31;6.53;;;3.58;;
75195;SDS011;63773;42.282;22.782;2023-04-03T09:02:00;2.67;;;1.10;;
75195;SDS011;63773;42.282;22.782;2023-04-03T09:04:35;3.03;;;1.35;;
75195;SDS011;63773;42.282;22.782;2023-04-03T09:07:07;2.25;;;0.88;;
75195;SDS011;63773;42.282;22.782;2023-04-03T09:09:40;2.25;;;1.15;;
75195;SDS011;63773;42.282;22.782;2023-04-03T09:14:50;1.70;;;0.70;;
75195;SDS011;63773;42.282;22.782;2023-04-03T09:22:41;1.52;;;0.75;;
75195;SDS011;63773;42.282;22.782;2023-04-03T09:25:13;1.35;;;0.60;;
75195;SDS011;63773;42.282;22.782;2023-04-03T09:27:44;4.60;;;0.80;;
75195;SDS011;63773;42.282;22.782;2023-04-03T09:30:14;1.67;;;0.60;;
75195;SDS011;63773;42.282;22.782;2023-04-03T09:32:41;2.95;;;0.85;;
75195;SDS011;63773;42.282;22.782;2023-04-03T09:35:26;1.88;;;0.85;;
75195;SDS011;63773;42.282;22.782;2023-04-03T09:37:58;2.25;;;1.23;;
75195;SDS011;63773;42.282;22.782;2023-04-03T09:42:50;7.85;;;1.38;;
75195;SDS011;63773;42.282;22.782;2023-04-03T09:53:40;2.20;;;0.60;;
75195;SDS011;63773;42.282;22.782;2023-04-03T09:58:39;2.40;;;0.82;;
75195;SDS011;63773;42.282;22.782;2023-04-03T10:01:20;1.40;;;0.40;;
75195;SDS011;63773;42.282;22.782;2023-04-03T10:04:02;1.17;;;0.60;;
75195;SDS011;63773;42.282;22.782;2023-04-03T10:06:40;2.38;;;0.93;;
75195;SDS011;63773;42.282;22.782;2023-04-03T10:09:21;1.48;;;0.60;;
75195;SDS011;63773;42.282;22.782;2023-04-03T10:12:06;2.17;;;0.60;;
75195;SDS011;63773;42.282;22.782;2023-04-03T10:14:39;1.02;;;0.57;;
75195;SDS011;63773;42.282;22.782;2023-04-03T10:28:12;1.38;;;0.52;;
75195;SDS011;63773;42.282;22.782;2023-04-03T10:33:53;2.83;;;0.60;;
75195;SDS011;63773;42.282;22.782;2023-04-03T10:57:44;2.67;;;0.60;;
75195;SDS011;63773;42.282;22.782;2023-04-03T11:03:11;2.20;;;0.60;;
75195;SDS011;63773;42.282;22.782;2023-04-03T11:05:45;19.80;;;10.32;;
75195;SDS011;63773;42.282;22.782;2023-04-03T11:11:08;49.88;;;25.17;;
75195;SDS011;63773;42.282;22.782;2023-04-03T11:13:46;113.43;;;47.85;;
75195;SDS011;63773;42.282;22.782;2023-04-03T11:16:20;31.40;;;14.38;;
75195;SDS011;63773;42.282;22.782;2023-04-03T11:23:51;3.03;;;1.10;;
75195;SDS011;63773;42.282;22.782;2023-04-03T11:26:22;1.73;;;0.93;;
75195;SDS011;63773;42.282;22.782;2023-04-03T11:28:54;2.80;;;1.27;;
75195;SDS011;63773;42.282;22.782;2023-04-03T11:36:43;1.85;;;0.65;;
75195;SDS011;63773;42.282;22.782;2023-04-03T11:39:20;2.25;;;0.95;;
75195;SDS011;63773;42.282;22.782;2023-04-03T11:41:50;2.22;;;0.80;;
75195;SDS011;63773;42.282;22.782;2023-04-03T11:44:35;2.17;;;0.93;;
75195;SDS011;63773;42.282;22.782;2023-04-03T11:47:03;1.83;;;0.80;;
75195;SDS011;63773;42.282;22.782;2023-04-03T12:08:58;2.50;;;1.23;;
75195;SDS011;63773;42.282;22.782;2023-04-03T12:11:31;2.67;;;1.10;;
75195;SDS011;63773;42.282;22.782;2023-04-03T12:14:17;3.75;;;1.05;;
75195;SDS011;63773;42.282;22.782;2023-04-03T12:17:12;1.73;;;0.70;;
75195;SDS011;63773;42.282;22.782;2023-04-03T12:19:55;2.00;;;0.90;;
75195;SDS011;63773;42.282;22.782;2023-04-03T12:22:22;2.65;;;1.27;;
75195;SDS011;63773;42.282;22.782;2023-04-03T12:24:52;2.70;;;1.23;;
75195;SDS011;63773;42.282;22.782;2023-04-03T12:27:28;1.70;;;1.20;;
75195;SDS011;63773;42.282;22.782;2023-04-03T12:33:03;2.10;;;1.02;;
75195;SDS011;63773;42.282;22.782;2023-04-03T12:35:44;1.83;;;1.15;;
75195;SDS011;63773;42.282;22.782;2023-04-03T12:40:53;2.20;;;1.20;;
75195;SDS011;63773;42.282;22.782;2023-04-03T12:57:19;1.60;;;0.88;;
75195;SDS011;63773;42.282;22.782;2023-04-03T12:59:46;2.22;;;0.77;;
75195;SDS011;63773;42.282;22.782;2023-04-03T13:02:27;3.35;;;1.23;;
75195;SDS011;63773;42.282;22.782;2023-04-03T13:05:05;2.88;;;1.45;;
75195;SDS011;63773;42.282;22.782;2023-04-03T13:07:39;2.42;;;1.15;;
75195;SDS011;63773;42.282;22.782;2023-04-03T13:10:17;1.77;;;0.95;;
75195;SDS011;63773;42.282;22.782;2023-04-03T13:12:46;1.50;;;0.85;;
75195;SDS011;63773;42.282;22.782;2023-04-03T13:15:17;1.63;;;0.88;;
75195;SDS011;63773;42.282;22.782;2023-04-03T13:17:52;1.30;;;0.70;;
75195;SDS011;63773;42.282;22.782;2023-04-03T13:23:08;1.63;;;0.50;;
75195;SDS011;63773;42.282;22.782;2023-04-03T13:25:42;2.92;;;1.23;;
75195;SDS011;63773;42.282;22.782;2023-04-03T13:28:11;4.45;;;1.20;;
75195;SDS011;63773;42.282;22.782;2023-04-03T13:30:41;1.67;;;0.98;;
75195;SDS011;63773;42.282;22.782;2023-04-03T13:33:23;1.77;;;0.85;;
75195;SDS011;63773;42.282;22.782;2023-04-03T13:36:00;1.42;;;0.60;;
75195;SDS011;63773;42.282;22.782;2023-04-03T13:38:30;2.10;;;1.13;;
75195;SDS011;63773;42.282;22.782;2023-04-03T13:40:59;1.17;;;0.50;;
75195;SDS011;63773;42.282;22.782;2023-04-03T13:43:29;1.30;;;0.73;;
75195;SDS011;63773;42.282;22.782;2023-04-03T13:48:45;1.50;;;0.93;;
75195;SDS011;63773;42.282;22.782;2023-04-03T13:51:24;1.77;;;0.60;;
75195;SDS011;63773;42.282;22.782;2023-04-03T13:56:38;1.20;;;0.68;;
75195;SDS011;63773;42.282;22.782;2023-04-03T14:01:46;1.45;;;0.57;;
75195;SDS011;63773;42.282;22.782;2023-04-03T14:04:31;1.08;;;0.68;;
75195;SDS011;63773;42.282;22.782;2023-04-03T14:07:09;1.33;;;0.82;;
75195;SDS011;63773;42.282;22.782;2023-04-03T14:09:35;1.00;;;0.40;;
75195;SDS011;63773;42.282;22.782;2023-04-03T14:12:05;1.42;;;0.68;;
75195;SDS011;63773;42.282;22.782;2023-04-03T14:14:34;1.10;;;0.60;;
75195;SDS011;63773;42.282;22.782;2023-04-03T14:17:02;0.80;;;0.40;;
75195;SDS011;63773;42.282;22.782;2023-04-03T14:19:35;1.58;;;0.90;;
75195;SDS011;63773;42.282;22.782;2023-04-03T14:22:05;8.45;;;3.90;;
75195;SDS011;63773;42.282;22.782;2023-04-03T14:24:37;19.88;;;5.80;;
75195;SDS011;63773;42.282;22.782;2023-04-03T14:27:05;5.28;;;1.83;;
75195;SDS011;63773;42.282;22.782;2023-04-03T14:29:45;2.63;;;1.38;;
75195;SDS011;63773;42.282;22.782;2023-04-03T14:32:12;2.30;;;0.90;;
75195;SDS011;63773;42.282;22.782;2023-04-03T14:34:39;0.95;;;0.43;;
75195;SDS011;63773;42.282;22.782;2023-04-03T14:37:09;0.70;;;0.30;;
75195;SDS011;63773;42.282;22.782;2023-04-03T14:39:37;1.50;;;0.70;;
75195;SDS011;63773;42.282;22.782;2023-04-03T14:42:03;1.90;;;0.85;;
75195;SDS011;63773;42.282;22.782;2023-04-03T14:44:28;2.63;;;0.80;;
75195;SDS011;63773;42.282;22.782;2023-04-03T14:46:53;1.30;;;0.60;;
75195;SDS011;63773;42.282;22.782;2023-04-03T14:49:22;1.80;;;0.60;;
75195;SDS011;63773;42.282;22.782;2023-04-03T14:51:51;2.50;;;1.27;;
75195;SDS011;63773;42.282;22.782;2023-04-03T14:54:18;6.47;;;1.75;;
75195;SDS011;63773;42.282;22.782;2023-04-03T14:56:50;18.70;;;5.30;;
75195;SDS011;63773;42.282;22.782;2023-04-03T14:59:16;14.70;;;6.18;;
75195;SDS011;63773;42.282;22.782;2023-04-03T15:01:45;33.00;;;13.73;;
75195;SDS011;63773;42.282;22.782;2023-04-03T15:04:14;16.58;;;6.10;;
75195;SDS011;63773;42.282;22.782;2023-04-03T15:06:43;7.78;;;3.40;;
75195;SDS011;63773;42.282;22.782;2023-04-03T15:09:15;27.15;;;10.88;;
75195;SDS011;63773;42.282;22.782;2023-04-03T15:11:45;9.25;;;4.38;;
75195;SDS011;63773;42.282;22.782;2023-04-03T15:14:11;6.43;;;2.88;;
75195;SDS011;63773;42.282;22.782;2023-04-03T15:16:36;2.25;;;1.00;;
75195;SDS011;63773;42.282;22.782;2023-04-03T15:19:02;4.35;;;2.03;;
75195;SDS011;63773;42.282;22.782;2023-04-03T15:21:28;9.23;;;3.95;;
75195;SDS011;63773;42.282;22.782;2023-04-03T15:23:53;9.63;;;4.30;;
75195;SDS011;63773;42.282;22.782;2023-04-03T15:26:18;4.43;;;3.03;;
75195;SDS011;63773;42.282;22.782;2023-04-03T15:28:45;8.68;;;4.93;;
75195;SDS011;63773;42.282;22.782;2023-04-03T15:31:11;8.57;;;5.63;;
75195;SDS011;63773;42.282;22.782;2023-04-03T15:33:37;9.75;;;6.32;;
75195;SDS011;63773;42.282;22.782;2023-04-03T15:36:03;16.10;;;8.07;;
75195;SDS011;63773;42.282;22.782;2023-04-03T15:38:29;16.75;;;10.63;;
75195;SDS011;63773;42.282;22.782;2023-04-03T15:40:55;8.00;;;4.90;;
75195;SDS011;63773;42.282;22.782;2023-04-03T15:43:20;8.65;;;4.32;;
75195;SDS011;63773;42.282;22.782;2023-04-03T15:45:46;14.93;;;8.35;;
75195;SDS011;63773;42.282;22.782;2023-04-03T15:48:12;14.35;;;9.13;;
75195;SDS011;63773;42.282;22.782;2023-04-03T15:50:40;17.90;;;9.70;;
75195;SDS011;63773;42.282;22.782;2023-04-03T15:53:06;24.20;;;10.65;;
75195;SDS011;63773;42.282;22.782;2023-04-03T15:55:33;8.38;;;4.60;;
75195;SDS011;63773;42.282;22.782;2023-04-03T15:58:00;6.72;;;3.30;;
75195;SDS011;63773;42.282;22.782;2023-04-03T16:00:26;4.13;;;1.95;;
75195;SDS011;63773;42.282;22.782;2023-04-03T16:02:53;4.30;;;1.65;;
75195;SDS011;63773;42.282;22.782;2023-04-03T16:05:23;4.93;;;2.55;;
75195;SDS011;63773;42.282;22.782;2023-04-03T16:07:49;12.77;;;5.57;;
75195;SDS011;63773;42.282;22.782;2023-04-03T16:10:15;14.75;;;7.75;;
75195;SDS011;63773;42.282;22.782;2023-04-03T16:15:08;16.90;;;8.53;;
75195;SDS011;63773;42.282;22.782;2023-04-03T16:17:34;17.80;;;10.02;;
75195;SDS011;63773;42.282;22.782;2023-04-03T16:20:02;22.55;;;11.80;;
75195;SDS011;63773;42.282;22.782;2023-04-03T16:22:29;28.58;;;16.30;;
75195;SDS011;63773;42.282;22.782;2023-04-03T16:24:55;17.30;;;10.13;;
75195;SDS011;63773;42.282;22.782;2023-04-03T16:27:21;10.93;;;6.43;;
75195;SDS011;63773;42.282;22.782;2023-04-03T16:29:47;15.88;;;9.10;;
75195;SDS011;63773;42.282;22.782;2023-04-03T16:32:12;23.88;;;10.30;;
75195;SDS011;63773;42.282;22.782;2023-04-03T16:34:39;15.55;;;8.30;;
75195;SDS011;63773;42.282;22.782;2023-04-03T16:37:05;12.10;;;6.40;;
75195;SDS011;63773;42.282;22.782;2023-04-03T16:39:33;10.63;;;5.47;;
75195;SDS011;63773;42.282;22.782;2023-04-03T16:41:59;13.70;;;5.45;;
75195;SDS011;63773;42.282;22.782;2023-04-03T16:44:25;7.00;;;3.80;;
75195;SDS011;63773;42.282;22.782;2023-04-03T16:46:51;13.23;;;4.95;;
75195;SDS011;63773;42.282;22.782;2023-04-03T16:49:16;10.85;;;5.38;;
75195;SDS011;63773;42.282;22.782;2023-04-03T16:51:42;6.85;;;3.05;;
75195;SDS011;63773;42.282;22.782;2023-04-03T16:54:07;7.50;;;3.17;;
75195;SDS011;63773;42.282;22.782;2023-04-03T16:56:35;6.25;;;2.75;;
75195;SDS011;63773;42.282;22.782;2023-04-03T16:59:01;11.68;;;5.53;;
75195;SDS011;63773;42.282;22.782;2023-04-03T17:01:27;11.43;;;4.95;;
75195;SDS011;63773;42.282;22.782;2023-04-03T17:03:52;4.85;;;2.40;;